createdAt,value
2023-05-08T00:00:05.945Z,14.07
2023-05-08T00:02:32.485Z,14.06
2023-05-08T00:04:59.300Z,14.04
2023-05-08T00:07:26.116Z,14.06
2023-05-08T00:09:52.748Z,14.05
2023-05-08T00:12:19.364Z,14.10
2023-05-08T00:14:45.953Z,14.10
2023-05-08T00:17:12.648Z,14.13
2023-05-08T00:19:39.398Z,14.13
2023-05-08T00:22:06.056Z,14.12
2023-05-08T00:24:32.698Z,14.05
2023-05-08T00:26:59.307Z,14.06
2023-05-08T00:29:25.890Z,14.06
2023-05-08T00:31:52.573Z,14.04
2023-05-08T00:34:19.247Z,13.89
2023-05-08T00:36:45.844Z,13.78
2023-05-08T00:39:12.631Z,13.69
2023-05-08T00:41:39.381Z,13.62
2023-05-08T00:44:06.086Z,13.66
2023-05-08T00:46:32.823Z,13.63
2023-05-08T00:49:00.062Z,13.66
2023-05-08T00:51:28.071Z,13.67
2023-05-08T00:53:54.813Z,13.63
2023-05-08T00:56:23.849Z,13.43
2023-05-08T00:58:51.288Z,13.40
2023-05-08T01:01:17.953Z,13.40
2023-05-08T01:03:45.366Z,13.36
2023-05-08T01:06:12.083Z,13.34
2023-05-08T01:08:39.245Z,13.25
2023-05-08T01:11:22.141Z,13.34
2023-05-08T01:14:08.234Z,13.38
2023-05-08T01:17:11.969Z,13.42
2023-05-08T01:19:53.453Z,13.36
2023-05-08T01:23:08.709Z,13.42
2023-05-08T01:26:02.793Z,13.42
2023-05-08T01:29:05.431Z,13.32
2023-05-08T01:31:58.105Z,13.09
2023-05-08T01:34:33.791Z,13.06
2023-05-08T01:37:08.503Z,13.07
2023-05-08T01:40:01.328Z,13.08
2023-05-08T01:42:58.226Z,13.11
2023-05-08T01:45:32.320Z,13.06
2023-05-08T01:48:09.282Z,13.02
2023-05-08T01:50:42.655Z,13.09
2023-05-08T01:53:24.361Z,13.09
2023-05-08T01:55:55.763Z,13.01
2023-05-08T01:58:24.376Z,12.93
2023-05-08T02:00:51.569Z,12.86
2023-05-08T02:03:22.770Z,12.81
2023-05-08T02:05:52.331Z,12.77
2023-05-08T02:08:21.413Z,12.71
2023-05-08T02:10:51.125Z,12.74
2023-05-08T02:13:21.588Z,12.75
2023-05-08T02:15:50.230Z,12.72
2023-05-08T02:18:21.400Z,12.74
2023-05-08T02:20:50.561Z,12.75
2023-05-08T02:23:19.528Z,12.71
2023-05-08T02:25:48.278Z,12.59
2023-05-08T02:28:18.097Z,12.44
2023-05-08T02:30:46.085Z,12.43
2023-05-08T02:33:15.078Z,12.43
2023-05-08T02:35:44.873Z,12.39
2023-05-08T02:38:14.059Z,12.46
2023-05-08T02:40:46.138Z,12.46
2023-05-08T02:43:13.062Z,12.38
2023-05-08T02:46:17.103Z,12.47
2023-05-08T02:49:05.090Z,12.48
2023-05-08T02:52:14.714Z,12.51
2023-05-08T02:54:50.374Z,12.47
2023-05-08T02:57:27.631Z,12.42
2023-05-08T03:00:03.573Z,12.34
2023-05-08T03:02:48.404Z,12.27
2023-05-08T03:05:20.798Z,12.27
2023-05-08T03:07:52.825Z,12.22
2023-05-08T03:10:21.971Z,12.22
2023-05-08T03:12:51.821Z,12.20
2023-05-08T03:15:24.162Z,12.17
2023-05-08T03:17:54.791Z,12.13
2023-05-08T03:20:22.614Z,12.14
2023-05-08T03:22:51.061Z,12.16
2023-05-08T03:25:19.719Z,12.22
2023-05-08T03:27:47.350Z,12.16
2023-05-08T03:30:15.675Z,12.11
2023-05-08T03:32:45.280Z,12.27
2023-05-08T03:35:13.582Z,12.36
2023-05-08T03:37:40.618Z,12.39
2023-05-08T03:40:08.676Z,12.38
2023-05-08T03:42:36.159Z,12.37
2023-05-08T03:45:03.428Z,12.33
2023-05-08T03:47:31.243Z,12.34
2023-05-08T03:49:58.963Z,12.24
2023-05-08T03:52:26.320Z,12.39
2023-05-08T03:54:52.889Z,12.48
2023-05-08T03:57:19.574Z,12.47
2023-05-08T04:00:07.433Z,12.47
2023-05-08T04:02:42.382Z,12.52
2023-05-08T04:05:34.592Z,12.53
2023-05-08T04:08:18.532Z,12.57
2023-05-08T04:11:17.515Z,12.63
2023-05-08T04:13:50.564Z,12.67
2023-05-08T04:16:22.072Z,12.72
2023-05-08T04:18:50.801Z,12.76
2023-05-08T04:21:24.388Z,12.80
2023-05-08T04:23:52.393Z,12.78
2023-05-08T04:26:19.498Z,12.97
2023-05-08T04:28:46.957Z,13.01
2023-05-08T04:31:17.173Z,13.08
2023-05-08T04:33:47.087Z,13.06
2023-05-08T04:36:14.532Z,13.27
2023-05-08T04:38:41.255Z,13.28
2023-05-08T04:41:08.786Z,13.40
2023-05-08T04:43:36.265Z,13.46
2023-05-08T04:46:04.428Z,13.56
2023-05-08T04:48:33.239Z,13.60
2023-05-08T04:51:00.913Z,13.66
2023-05-08T04:53:27.565Z,13.57
2023-05-08T04:55:54.401Z,13.65
2023-05-08T04:58:21.147Z,13.69
2023-05-08T05:00:48.836Z,13.78
2023-05-08T05:03:15.633Z,13.65
2023-05-08T05:05:42.483Z,13.79
2023-05-08T05:08:09.227Z,13.92
2023-05-08T05:10:35.860Z,13.96
2023-05-08T05:13:02.525Z,14.06
2023-05-08T05:15:29.220Z,14.15
2023-05-08T05:17:55.933Z,14.21
2023-05-08T05:20:22.644Z,14.27
2023-05-08T05:22:49.560Z,14.44
2023-05-08T05:25:16.286Z,14.52
2023-05-08T05:27:42.979Z,14.53
2023-05-08T05:30:09.887Z,14.57
2023-05-08T05:32:36.689Z,14.66
2023-05-08T05:35:03.328Z,14.62
2023-05-08T05:37:29.917Z,14.76
2023-05-08T05:39:56.545Z,15.01
2023-05-08T05:42:23.355Z,15.31
2023-05-08T05:44:50.053Z,15.71
2023-05-08T05:47:16.838Z,16.31
2023-05-08T05:49:47.398Z,16.63
2023-05-08T05:52:14.837Z,17.10
2023-05-08T05:54:43.987Z,17.44
2023-05-08T05:57:10.698Z,17.69
2023-05-08T05:59:37.466Z,18.15
2023-05-08T06:02:04.140Z,18.24
2023-05-08T06:04:30.973Z,18.11
2023-05-08T06:06:57.592Z,18.11
2023-05-08T06:09:24.179Z,18.14
2023-05-08T06:11:50.867Z,18.10
2023-05-08T06:14:17.454Z,18.16
2023-05-08T06:16:45.124Z,18.11
2023-05-08T06:19:12.188Z,18.64
2023-05-08T06:21:39.921Z,19.32
2023-05-08T06:24:07.185Z,19.40
2023-05-08T06:26:33.892Z,19.72
2023-05-08T06:29:00.467Z,20.11
2023-05-08T06:31:27.360Z,20.20
2023-05-08T06:33:54.023Z,20.15
2023-05-08T06:36:20.679Z,20.65
2023-05-08T06:38:47.298Z,20.96
2023-05-08T06:41:15.330Z,20.90
2023-05-08T06:43:42.144Z,21.33
2023-05-08T06:46:08.794Z,21.61
2023-05-08T06:48:35.740Z,21.90
2023-05-08T06:51:02.695Z,21.92
2023-05-08T06:53:29.261Z,22.02
2023-05-08T06:55:57.958Z,22.11
2023-05-08T06:58:24.794Z,22.71
2023-05-08T07:00:51.500Z,22.77
2023-05-08T07:03:18.080Z,22.95
2023-05-08T07:05:44.635Z,23.39
2023-05-08T07:08:11.196Z,23.07
2023-05-08T07:10:37.767Z,23.03
2023-05-08T07:13:04.461Z,23.01
2023-05-08T07:15:34.234Z,22.98
2023-05-08T07:18:01.205Z,22.43
2023-05-08T07:20:28.194Z,22.39
2023-05-08T07:22:54.867Z,22.34
2023-05-08T07:25:21.757Z,22.45
2023-05-08T07:27:48.315Z,22.58
2023-05-08T07:30:15.367Z,23.04
2023-05-08T07:32:42.079Z,22.88
2023-05-08T07:35:11.110Z,22.77
2023-05-08T07:37:38.928Z,22.60
2023-05-08T07:40:06.299Z,22.46
2023-05-08T07:42:39.107Z,22.65
2023-05-08T07:45:06.270Z,22.88
2023-05-08T07:47:32.827Z,23.04
2023-05-08T07:49:59.475Z,22.86
2023-05-08T07:52:26.223Z,22.88
2023-05-08T07:54:52.878Z,22.99
2023-05-08T07:57:19.568Z,22.94
2023-05-08T07:59:46.180Z,22.51
2023-05-08T08:02:13.223Z,22.74
2023-05-08T08:04:40.066Z,22.81
2023-05-08T08:07:06.673Z,22.94
2023-05-08T08:09:33.354Z,23.24
2023-05-08T08:12:00.350Z,23.49
2023-05-08T08:14:27.625Z,23.57
2023-05-08T08:16:54.201Z,23.57
2023-05-08T08:19:20.955Z,23.85
2023-05-08T08:21:47.587Z,23.51
2023-05-08T08:24:14.222Z,23.55
2023-05-08T08:26:40.851Z,23.47
2023-05-08T08:29:07.539Z,23.34
2023-05-08T08:31:34.264Z,23.42
2023-05-08T08:34:01.001Z,23.42
2023-05-08T08:36:28.105Z,23.22
2023-05-08T08:38:54.688Z,23.25
2023-05-08T08:41:21.838Z,23.21
2023-05-08T08:43:48.675Z,23.15
2023-05-08T08:46:16.349Z,23.18
2023-05-08T08:48:47.567Z,23.12
2023-05-08T08:51:43.000Z,23.20
2023-05-08T08:54:17.471Z,23.23
2023-05-08T08:56:48.108Z,23.32
2023-05-08T08:59:16.597Z,23.42
2023-05-08T09:01:47.738Z,23.35
2023-05-08T09:04:14.581Z,23.37
2023-05-08T09:06:41.375Z,23.31
2023-05-08T09:09:07.980Z,22.96
2023-05-08T09:11:37.661Z,22.78
2023-05-08T09:14:04.278Z,22.57
2023-05-08T09:16:31.073Z,22.42
2023-05-08T09:18:57.826Z,22.48
2023-05-08T09:21:24.886Z,22.49
2023-05-08T09:24:02.760Z,22.51
2023-05-08T09:26:34.017Z,22.64
2023-05-08T09:29:14.406Z,22.76
2023-05-08T09:31:42.947Z,22.64
2023-05-08T09:34:11.166Z,22.53
2023-05-08T09:36:40.069Z,22.38
2023-05-08T09:39:13.976Z,22.30
2023-05-08T09:42:00.255Z,22.18
2023-05-08T09:44:26.982Z,22.09
2023-05-08T09:47:13.476Z,22.04
2023-05-08T09:49:56.769Z,22.10
2023-05-08T09:52:24.870Z,22.15
2023-05-08T09:54:58.926Z,22.26
2023-05-08T09:57:29.943Z,22.35
2023-05-08T10:00:10.345Z,22.38
2023-05-08T10:02:39.080Z,22.45
2023-05-08T10:05:23.832Z,22.31
2023-05-08T10:07:50.773Z,22.36
2023-05-08T10:10:26.286Z,22.33
2023-05-08T10:12:54.881Z,22.35
2023-05-08T10:15:42.758Z,22.41
2023-05-08T10:18:12.178Z,22.39
2023-05-08T10:20:41.905Z,22.26
2023-05-08T10:23:14.214Z,22.36
2023-05-08T10:25:46.851Z,22.35
2023-05-08T10:28:18.549Z,22.29
2023-05-08T10:30:48.947Z,22.37
2023-05-08T10:33:20.272Z,22.33
2023-05-08T10:35:48.172Z,22.37
2023-05-08T10:38:16.630Z,22.50
2023-05-08T10:40:43.680Z,22.60
2023-05-08T10:43:11.396Z,22.57
2023-05-08T10:45:38.795Z,22.59
2023-05-08T10:48:36.411Z,22.62
2023-05-08T10:51:14.269Z,22.65
2023-05-08T10:54:05.459Z,22.84
2023-05-08T10:56:32.079Z,23.02
2023-05-08T10:58:59.714Z,23.02
2023-05-08T11:01:27.138Z,23.02
2023-05-08T11:03:56.239Z,23.09
2023-05-08T11:06:46.749Z,23.19
2023-05-08T11:09:26.999Z,23.20
2023-05-08T11:12:09.323Z,23.16
2023-05-08T11:14:41.834Z,23.26
2023-05-08T11:17:09.453Z,23.37
2023-05-08T11:19:37.504Z,23.57
2023-05-08T11:22:23.908Z,23.64
2023-05-08T11:24:53.416Z,23.65
2023-05-08T11:27:42.542Z,23.83
2023-05-08T11:30:35.164Z,24.05
2023-05-08T11:33:04.917Z,24.32
2023-05-08T11:35:45.161Z,24.53
2023-05-08T11:38:36.236Z,24.54
2023-05-08T11:41:22.111Z,24.51
2023-05-08T11:44:02.375Z,24.45
2023-05-08T11:46:42.876Z,24.35
2023-05-08T11:49:14.583Z,24.40
2023-05-08T11:51:45.015Z,24.51
2023-05-08T11:54:18.482Z,24.51
2023-05-08T11:56:56.907Z,24.52
2023-05-08T11:59:23.673Z,24.22
2023-05-08T12:02:04.043Z,24.48
2023-05-08T12:04:44.646Z,24.70
2023-05-08T12:07:11.848Z,24.75
2023-05-08T12:09:38.373Z,24.73
2023-05-08T12:12:05.157Z,24.62
2023-05-08T12:14:31.793Z,24.46
2023-05-08T12:16:58.480Z,24.45
2023-05-08T12:19:25.282Z,24.38
2023-05-08T12:21:52.027Z,24.38
2023-05-08T12:24:25.589Z,24.53
2023-05-08T12:26:56.427Z,24.58
2023-05-08T12:29:24.143Z,24.49
2023-05-08T12:31:51.903Z,24.41
2023-05-08T12:34:18.649Z,24.27
2023-05-08T12:36:45.252Z,24.14
2023-05-08T12:39:16.965Z,24.09
2023-05-08T12:41:50.216Z,23.92
2023-05-08T12:44:30.190Z,23.99
2023-05-08T12:46:58.065Z,23.95
2023-05-08T12:49:26.804Z,23.70
2023-05-08T12:52:07.716Z,23.74
2023-05-08T12:54:46.294Z,23.77
2023-05-08T12:57:14.505Z,23.87
2023-05-08T12:59:42.366Z,23.93
2023-05-08T13:02:22.129Z,23.98
2023-05-08T13:04:53.386Z,24.06
2023-05-08T13:07:20.154Z,24.14
2023-05-08T13:10:04.454Z,24.21
2023-05-08T13:12:31.687Z,24.16
2023-05-08T13:14:58.282Z,24.10
2023-05-08T13:17:25.061Z,23.89
2023-05-08T13:19:51.866Z,24.04
2023-05-08T13:22:18.679Z,24.26
2023-05-08T13:24:45.277Z,23.99
2023-05-08T13:27:13.435Z,24.02
2023-05-08T13:29:40.085Z,23.96
2023-05-08T13:32:06.753Z,23.85
2023-05-08T13:34:33.990Z,23.62
2023-05-08T13:37:02.732Z,23.72
2023-05-08T13:39:32.002Z,23.83
2023-05-08T13:41:58.860Z,23.96
2023-05-08T13:44:25.805Z,23.93
2023-05-08T13:46:52.359Z,24.05
2023-05-08T13:49:19.950Z,24.08
2023-05-08T13:51:49.176Z,24.02
2023-05-08T13:54:18.490Z,24.03
2023-05-08T13:56:46.487Z,23.69
2023-05-08T13:59:13.146Z,23.69
2023-05-08T14:01:39.832Z,23.58
2023-05-08T14:04:06.803Z,23.71
2023-05-08T14:06:33.544Z,23.67
2023-05-08T14:09:00.135Z,23.70
2023-05-08T14:11:27.344Z,23.71
2023-05-08T14:13:53.785Z,23.56
2023-05-08T14:16:20.635Z,23.47
2023-05-08T14:18:47.396Z,23.37
2023-05-08T14:21:13.982Z,23.27
2023-05-08T14:23:41.287Z,22.96
2023-05-08T14:26:08.071Z,23.07
2023-05-08T14:28:34.681Z,22.99
2023-05-08T14:31:01.317Z,22.70
2023-05-08T14:33:28.023Z,22.41
2023-05-08T14:35:54.717Z,22.03
2023-05-08T14:38:21.344Z,21.69
2023-05-08T14:40:51.300Z,21.38
2023-05-08T14:43:18.203Z,21.16
2023-05-08T14:45:44.842Z,21.10
2023-05-08T15:16:56.972Z,20.22
2023-05-08T15:19:23.554Z,20.02
2023-05-08T15:21:50.174Z,19.91
2023-05-08T15:24:16.859Z,19.81
2023-05-08T15:26:43.519Z,19.55
2023-05-08T15:29:10.095Z,19.30
2023-05-08T15:31:36.741Z,19.16
2023-05-08T15:34:03.438Z,19.01
2023-05-08T15:36:32.509Z,18.87
2023-05-08T15:38:59.086Z,18.82
2023-05-08T15:41:25.734Z,18.76
2023-05-08T15:43:52.393Z,18.70
2023-05-08T15:46:19.008Z,18.68
2023-05-08T15:48:45.668Z,18.69
2023-05-08T15:51:12.380Z,18.64
2023-05-08T15:53:39.045Z,18.54
2023-05-08T15:56:06.494Z,18.54
2023-05-08T15:58:33.128Z,18.53
2023-05-08T16:00:59.726Z,18.39
2023-05-08T16:03:26.530Z,18.39
2023-05-08T16:05:53.230Z,18.39
2023-05-08T16:08:19.902Z,18.35
2023-05-08T16:10:46.682Z,18.26
2023-05-08T16:13:13.298Z,18.27
2023-05-08T16:15:40.607Z,18.30
2023-05-08T16:18:07.227Z,18.28
2023-05-08T16:20:35.777Z,18.25
2023-05-08T16:23:03.070Z,18.22
2023-05-08T16:25:29.726Z,18.28
2023-05-08T16:27:56.380Z,18.23
2023-05-08T16:30:23.090Z,18.20
2023-05-08T16:32:49.792Z,18.14
2023-05-08T16:35:17.066Z,18.18
2023-05-08T16:37:43.848Z,18.11
2023-05-08T16:40:11.144Z,18.07
2023-05-08T16:42:37.859Z,18.03
2023-05-08T16:45:08.333Z,18.00
2023-05-08T16:47:35.281Z,18.02
2023-05-08T16:50:02.160Z,17.91
2023-05-08T16:52:28.898Z,17.81
2023-05-08T16:54:55.591Z,17.88
2023-05-08T16:57:22.153Z,17.83
2023-05-08T16:59:49.010Z,17.86
2023-05-08T17:02:19.065Z,17.85
2023-05-08T17:04:49.644Z,17.87
2023-05-08T17:07:17.266Z,17.90
2023-05-08T17:09:44.618Z,17.89
2023-05-08T17:12:11.213Z,17.88
2023-05-08T17:14:39.467Z,17.89
2023-05-08T17:17:06.998Z,17.97
2023-05-08T17:19:33.817Z,17.92
2023-05-08T17:22:00.523Z,17.93
2023-05-08T17:24:27.709Z,17.97
2023-05-08T17:26:54.548Z,17.93
2023-05-08T17:29:21.258Z,18.01
2023-05-08T17:31:47.895Z,18.02
2023-05-08T17:34:14.814Z,18.01
2023-05-08T17:36:41.537Z,17.97
2023-05-08T17:39:08.482Z,17.97
2023-05-08T17:41:35.072Z,17.92
2023-05-08T17:44:01.938Z,17.89
2023-05-08T17:46:28.615Z,17.82
2023-05-08T17:48:55.282Z,17.94
2023-05-08T17:51:22.053Z,17.90
2023-05-08T17:53:48.682Z,17.82
2023-05-08T17:56:20.369Z,17.74
2023-05-08T17:58:47.155Z,17.71
2023-05-08T18:01:13.855Z,17.55
2023-05-08T18:03:40.953Z,17.60
2023-05-08T18:06:08.094Z,17.46
2023-05-08T18:08:34.726Z,17.48
2023-05-08T18:11:01.399Z,17.46
2023-05-08T18:13:28.129Z,17.47
2023-05-08T18:15:54.904Z,17.46
2023-05-08T18:18:21.660Z,17.43
2023-05-08T18:20:48.401Z,17.51
2023-05-08T18:23:15.080Z,17.46
2023-05-08T18:25:42.015Z,17.43
2023-05-08T18:28:08.625Z,17.44
2023-05-08T18:30:36.554Z,17.42
2023-05-08T18:33:03.410Z,17.46
2023-05-08T18:35:30.242Z,17.42
2023-05-08T18:37:56.872Z,17.36
2023-05-08T18:40:23.508Z,17.33
2023-05-08T18:42:50.363Z,17.22
2023-05-08T18:45:17.163Z,17.18
2023-05-08T18:47:43.824Z,17.18
2023-05-08T18:50:10.867Z,17.18
2023-05-08T18:52:37.572Z,17.17
2023-05-08T18:55:04.466Z,17.19
2023-05-08T18:57:31.227Z,17.13
2023-05-08T18:59:57.862Z,17.11
2023-05-08T19:02:24.932Z,17.12
2023-05-08T19:04:51.636Z,17.06
2023-05-08T19:07:18.482Z,17.03
2023-05-08T19:09:45.088Z,17.01
2023-05-08T19:12:11.846Z,16.99
2023-05-08T19:14:38.529Z,16.96
2023-05-08T19:17:05.143Z,17.02
2023-05-08T19:19:31.754Z,16.99
2023-05-08T19:21:58.529Z,16.96
2023-05-08T19:24:29.780Z,16.98
2023-05-08T19:27:00.002Z,16.97
2023-05-08T19:29:26.919Z,16.96
2023-05-08T19:31:53.590Z,17.01
2023-05-08T19:34:20.288Z,17.01
2023-05-08T19:36:47.008Z,17.03
2023-05-08T19:39:14.683Z,17.00
2023-05-08T19:41:41.413Z,16.99
2023-05-08T19:44:08.082Z,16.98
2023-05-08T19:46:34.717Z,16.93
2023-05-08T19:49:01.509Z,16.89
2023-05-08T19:51:28.142Z,16.87
2023-05-08T19:53:54.770Z,16.86
2023-05-08T19:56:21.444Z,16.89
2023-05-08T19:58:48.054Z,16.91
2023-05-08T20:01:14.923Z,16.90
2023-05-08T20:03:41.744Z,16.88
2023-05-08T20:06:08.644Z,16.82
2023-05-08T20:08:35.427Z,16.85
2023-05-08T20:11:04.043Z,16.82
2023-05-08T20:13:30.857Z,16.83
2023-05-08T20:15:58.765Z,16.85
2023-05-08T20:18:25.831Z,16.87
2023-05-08T20:20:52.454Z,16.90
2023-05-08T20:23:19.065Z,16.85
2023-05-08T20:25:47.697Z,16.78
2023-05-08T20:28:15.306Z,16.79
2023-05-08T20:30:42.030Z,16.78
2023-05-08T20:33:08.829Z,16.74
2023-05-08T20:35:36.135Z,16.76
2023-05-08T20:38:02.645Z,16.76
2023-05-08T20:40:29.300Z,16.76
2023-05-08T20:42:55.973Z,16.78
2023-05-08T20:45:22.661Z,16.77
2023-05-08T20:47:49.342Z,16.76
2023-05-08T20:50:16.558Z,16.74
2023-05-08T20:52:43.207Z,16.76
2023-05-08T20:55:10.295Z,16.77
2023-05-08T20:57:36.929Z,16.73
2023-05-08T21:00:04.321Z,16.74
2023-05-08T21:02:30.930Z,16.73
2023-05-08T21:04:57.612Z,16.76
2023-05-08T21:07:24.276Z,16.73
2023-05-08T21:09:51.201Z,16.73
2023-05-08T21:12:17.905Z,16.76
2023-05-08T21:14:44.467Z,16.76
2023-05-08T21:17:11.111Z,16.71
2023-05-08T21:19:37.814Z,16.67
2023-05-08T21:22:05.009Z,16.69
2023-05-08T21:24:31.587Z,16.72
2023-05-08T21:26:59.765Z,16.65
2023-05-08T21:29:26.521Z,16.60
2023-05-08T21:31:53.188Z,16.55
2023-05-08T21:34:22.438Z,16.34
2023-05-08T21:36:49.436Z,16.29
2023-05-08T21:39:16.026Z,16.28
2023-05-08T21:41:43.795Z,16.33
2023-05-08T21:44:15.461Z,16.30
2023-05-08T21:46:42.130Z,16.32
2023-05-08T21:49:08.740Z,16.31
2023-05-08T21:51:35.396Z,16.28
2023-05-08T21:54:02.139Z,16.24
2023-05-08T21:56:28.795Z,16.24
2023-05-08T21:58:55.824Z,16.16
2023-05-08T22:01:22.479Z,16.24
2023-05-08T22:03:49.477Z,16.27
2023-05-08T22:06:16.257Z,16.23
2023-05-08T22:08:42.916Z,16.26
2023-05-08T22:11:09.512Z,16.24
2023-05-08T22:13:36.234Z,16.32
2023-05-08T22:16:02.831Z,16.35
2023-05-08T22:18:29.842Z,16.34
2023-05-08T22:20:56.501Z,16.24
2023-05-08T22:23:23.100Z,16.26
2023-05-08T22:25:51.681Z,16.27
2023-05-08T22:28:18.245Z,16.29
2023-05-08T22:30:44.873Z,16.29
2023-05-08T22:33:11.555Z,16.19
2023-05-08T22:35:38.352Z,16.15
2023-05-08T22:38:05.011Z,16.13
2023-05-08T22:40:31.881Z,16.11
2023-05-08T22:42:58.940Z,16.11
2023-05-08T22:45:27.090Z,16.07
2023-05-08T22:47:54.596Z,16.11
2023-05-08T22:50:21.623Z,16.06
2023-05-08T22:52:48.252Z,16.08
2023-05-08T22:55:16.114Z,16.09
2023-05-08T22:57:43.446Z,16.07
2023-05-08T23:00:10.579Z,16.09
2023-05-08T23:02:37.356Z,16.04
2023-05-08T23:05:04.542Z,16.05
2023-05-08T23:07:31.311Z,16.12
2023-05-08T23:09:57.971Z,16.09
2023-05-08T23:12:24.633Z,15.90
2023-05-08T23:14:52.060Z,15.99
2023-05-08T23:17:18.876Z,16.05
2023-05-08T23:19:45.709Z,15.99
2023-05-08T23:22:12.512Z,16.00
2023-05-08T23:24:39.093Z,15.98
2023-05-08T23:27:05.762Z,16.00
2023-05-08T23:29:32.322Z,15.84
2023-05-08T23:31:59.933Z,15.73
2023-05-08T23:34:26.569Z,15.77
2023-05-08T23:36:53.389Z,15.80
2023-05-08T23:39:20.078Z,15.89
2023-05-08T23:41:46.697Z,15.88
2023-05-08T23:44:13.320Z,15.96
2023-05-08T23:46:39.940Z,15.98
2023-05-08T23:49:07.045Z,16.03
2023-05-08T23:51:33.765Z,15.96
2023-05-08T23:54:00.435Z,15.93
2023-05-08T23:56:27.168Z,16.00
2023-05-08T23:58:53.741Z,15.95
